Time;durP1;ratioP1;P1;durP2;ratioP2;P2;SDS_P1;SDS_P2;PMS_P1;PMS_P2;Temp;Humidity;BMP_temperature;BMP_pressure;BME280_temperature;BME280_humidity;BME280_pressure;Samples;Min_cycle;Max_cycle;Signal;HPM_P1;HPM_P2
2022/06/09 00:00:08;;;;;;;3.42;2.17;;;;;;;14.69;100.00;100425.97;6399244;27;20051;-75
2022/06/09 00:03:15;;;;;;;3.05;2.05;;;;;;;14.72;100.00;100424.91;6399845;27;20054;-75
2022/06/09 00:06:17;;;;;;;2.75;2.15;;;;;;;14.74;100.00;100428.25;6399178;27;20398;-76
2022/06/09 00:09:22;;;;;;;3.70;1.90;;;;;;;14.76;100.00;100422.84;6399258;27;20391;-75
2022/06/09 00:12:24;;;;;;;3.22;2.50;;;;;;;14.77;100.00;100424.56;6398976;27;20046;-75
2022/06/09 00:15:27;;;;;;;3.53;2.50;;;;;;;14.76;100.00;100430.78;6398797;27;20051;-75
2022/06/09 00:18:29;;;;;;;4.35;2.20;;;;;;;14.74;100.00;100425.59;6398565;27;20043;-75
2022/06/09 00:21:30;;;;;;;5.40;2.75;;;;;;;14.70;100.00;100424.16;6397755;27;20049;-75
2022/06/09 00:24:31;;;;;;;3.33;2.40;;;;;;;14.68;100.00;100423.44;6398402;27;20057;-76
2022/06/09 00:27:34;;;;;;;4.30;2.60;;;;;;;14.64;100.00;100425.47;6398902;27;20050;-75
2022/06/09 00:30:36;;;;;;;6.03;3.90;;;;;;;14.62;100.00;100419.44;6398513;27;20054;-75
2022/06/09 00:33:38;;;;;;;3.22;2.17;;;;;;;14.63;100.00;100425.59;6397217;27;20054;-75
2022/06/09 00:36:39;;;;;;;6.05;3.10;;;;;;;14.65;100.00;100427.16;6398274;27;20042;-76
2022/06/09 00:39:41;;;;;;;3.75;2.47;;;;;;;14.67;100.00;100424.38;6398550;27;20047;-76
2022/06/09 00:42:42;;;;;;;4.00;2.72;;;;;;;14.67;100.00;100427.03;6398468;27;20421;-75
2022/06/09 00:45:53;;;;;;;5.97;3.05;;;;;;;14.68;100.00;100426.09;6398033;27;20050;-75
2022/06/09 00:48:59;;;;;;;4.80;3.35;;;;;;;14.69;100.00;100435.69;6398663;27;20047;-75
2022/06/09 00:52:03;;;;;;;4.60;3.20;;;;;;;14.68;100.00;100434.03;6396281;27;20042;-76
2022/06/09 00:55:07;;;;;;;7.85;3.13;;;;;;;14.70;100.00;100434.72;6397852;27;20043;-75
2022/06/09 00:58:12;;;;;;;4.22;2.60;;;;;;;14.69;100.00;100430.41;6397042;27;20493;-75
2022/06/09 01:01:17;;;;;;;5.38;2.70;;;;;;;14.69;100.00;100425.13;6397953;27;20047;-75
2022/06/09 01:04:21;;;;;;;4.03;2.80;;;;;;;14.67;100.00;100437.59;6397619;27;20179;-75
2022/06/09 01:07:27;;;;;;;4.80;2.83;;;;;;;14.63;100.00;100441.47;6398177;27;20046;-75
2022/06/09 01:10:30;;;;;;;7.03;3.65;;;;;;;14.63;100.00;100437.00;6397688;27;20051;-75
2022/06/09 01:13:32;;;;;;;4.03;2.97;;;;;;;14.65;100.00;100442.19;6398208;27;20046;-75
2022/06/09 01:16:49;;;;;;;7.70;4.30;;;;;;;14.64;100.00;100441.34;6397435;27;20038;-75
2022/06/09 01:20:06;;;;;;;6.43;3.40;;;;;;;14.64;100.00;100440.50;6395821;27;20038;-75
2022/06/09 01:23:47;;;;;;;8.90;4.10;;;;;;;14.60;100.00;100442.53;6397775;27;20046;-75
2022/06/09 01:27:09;;;;;;;11.90;6.05;;;;;;;14.56;100.00;100437.56;6397628;27;20051;-75
2022/06/09 01:30:16;;;;;;;10.88;5.00;;;;;;;14.52;100.00;100438.75;6397322;27;20047;-75
2022/06/09 01:33:30;;;;;;;10.80;4.82;;;;;;;14.51;100.00;100443.22;6397584;27;20383;-75
2022/06/09 01:36:38;;;;;;;9.38;4.75;;;;;;;14.52;100.00;100444.06;6397353;27;20050;-75
2022/06/09 01:39:45;;;;;;;11.27;5.47;;;;;;;14.50;100.00;100449.47;6397206;27;20046;-76
2022/06/09 01:42:49;;;;;;;9.27;5.85;;;;;;;14.50;100.00;100456.56;6397501;27;20068;-75
2022/06/09 01:46:06;;;;;;;15.38;5.82;;;;;;;14.51;100.00;100447.66;6397058;27;20635;-75
2022/06/09 01:49:14;;;;;;;10.90;5.68;;;;;;;14.52;100.00;100451.97;6397636;27;20069;-75
2022/06/09 01:52:15;;;;;;;9.18;4.95;;;;;;;14.50;100.00;100448.63;6394733;27;20057;-75
2022/06/09 01:55:19;;;;;;;10.35;5.22;;;;;;;14.52;100.00;100457.28;6397053;27;20059;-74
2022/06/09 01:58:26;;;;;;;10.43;6.32;;;;;;;14.49;100.00;100441.63;6397227;27;20046;-75
2022/06/09 02:01:32;;;;;;;9.35;5.53;;;;;;;14.51;100.00;100456.44;6346055;28;20051;-76
2022/06/09 02:04:38;;;;;;;9.40;5.47;;;;;;;14.51;100.00;100460.88;6345826;28;20413;-75
2022/06/09 02:07:42;;;;;;;13.18;5.10;;;;;;;14.49;100.00;100460.13;6345300;28;20051;-76
2022/06/09 02:10:46;;;;;;;10.18;5.38;;;;;;;14.49;100.00;100462.78;6374272;27;20058;-75
2022/06/09 02:13:51;;;;;;;13.35;6.35;;;;;;;14.45;100.00;100465.63;6376007;27;20047;-76
2022/06/09 02:16:52;;;;;;;10.75;5.85;;;;;;;14.44;100.00;100463.09;6376471;27;20109;-76
2022/06/09 02:19:55;;;;;;;9.45;5.50;;;;;;;14.45;100.00;100464.81;6375586;27;20047;-75
2022/06/09 02:22:56;;;;;;;13.10;6.18;;;;;;;14.48;100.00;100469.88;6396406;27;20046;-76
2022/06/09 02:25:58;;;;;;;14.35;6.80;;;;;;;14.49;100.00;100470.72;6401641;27;20486;-75
2022/06/09 02:28:59;;;;;;;16.92;6.28;;;;;;;14.46;100.00;100472.59;6401536;27;20061;-75
2022/06/09 02:32:01;;;;;;;17.55;5.75;;;;;;;14.45;100.00;100476.22;6401520;27;20505;-75
2022/06/09 02:35:04;;;;;;;17.35;7.53;;;;;;;14.48;100.00;100483.09;6401116;27;20047;-75
2022/06/09 02:38:06;;;;;;;14.55;6.15;;;;;;;14.49;100.00;100486.56;6401600;27;20677;-75
2022/06/09 02:41:08;;;;;;;13.27;7.60;;;;;;;14.47;100.00;100482.22;6401123;27;20070;-75
2022/06/09 02:44:09;;;;;;;14.77;6.93;;;;;;;14.50;100.00;100485.66;6401266;27;20043;-75
2022/06/09 02:47:10;;;;;;;17.98;7.72;;;;;;;14.46;100.00;100487.63;6401289;27;20047;-75
2022/06/09 02:50:13;;;;;;;13.63;7.40;;;;;;;14.41;100.00;100487.97;6400978;27;20050;-75
2022/06/09 02:53:15;;;;;;;16.58;8.10;;;;;;;14.34;100.00;100489.34;6399287;27;20046;-75
2022/06/09 02:56:17;;;;;;;20.08;9.02;;;;;;;14.37;100.00;100491.78;6400474;27;20386;-76
2022/06/09 02:59:19;;;;;;;17.30;9.70;;;;;;;14.37;100.00;100491.78;6401094;27;20065;-76
2022/06/09 03:02:21;;;;;;;18.10;9.40;;;;;;;14.37;100.00;100493.59;6400538;27;20129;-75
2022/06/09 03:05:26;;;;;;;16.30;8.15;;;;;;;14.37;100.00;100498.88;6400774;27;20486;-75
2022/06/09 03:08:27;;;;;;;25.05;9.15;;;;;;;14.38;100.00;100498.75;6400666;27;20531;-76
2022/06/09 03:11:28;;;;;;;19.38;9.23;;;;;;;14.35;100.00;100493.72;6400817;27;20049;-75
2022/06/09 03:14:30;;;;;;;19.10;10.77;;;;;;;14.36;100.00;100502.50;6400387;27;20433;-75
2022/06/09 03:17:31;;;;;;;19.20;11.30;;;;;;;14.31;100.00;100500.19;6400551;27;20054;-75
2022/06/09 03:20:34;;;;;;;22.27;10.57;;;;;;;14.31;100.00;100507.28;6398256;27;20046;-75
2022/06/09 03:23:36;;;;;;;16.92;8.65;;;;;;;14.32;100.00;100501.03;6400167;27;20141;-76
2022/06/09 03:26:37;;;;;;;23.63;11.27;;;;;;;14.33;100.00;100508.81;6400337;27;20046;-75
2022/06/09 03:29:38;;;;;;;19.77;9.25;;;;;;;14.31;100.00;100507.28;6399971;27;20043;-75
2022/06/09 03:32:40;;;;;;;26.83;11.65;;;;;;;14.30;100.00;100513.50;6400033;27;20410;-75
2022/06/09 03:35:42;;;;;;;24.02;10.25;;;;;;;14.31;100.00;100516.03;6399593;27;20494;-75
2022/06/09 03:38:44;;;;;;;22.05;10.10;;;;;;;14.30;100.00;100519.63;6400066;27;20049;-76
2022/06/09 03:41:45;;;;;;;19.35;9.48;;;;;;;14.34;100.00;100520.25;6399365;27;20050;-75
2022/06/09 03:44:47;;;;;;;18.20;9.80;;;;;;;14.36;100.00;100528.94;6399794;27;20047;-75
2022/06/09 03:47:48;;;;;;;23.05;11.68;;;;;;;14.35;100.00;100524.56;6378691;27;20399;-76
2022/06/09 03:50:51;;;;;;;26.05;11.80;;;;;;;14.31;100.00;100523.97;6376742;27;20046;-75
2022/06/09 03:53:52;;;;;;;26.10;11.25;;;;;;;14.30;100.00;100532.84;6372114;27;20080;-76
2022/06/09 03:56:54;;;;;;;21.42;12.25;;;;;;;14.31;100.00;100537.19;6369719;27;20046;-75
2022/06/09 03:59:55;;;;;;;23.90;11.60;;;;;;;14.32;100.00;100540.69;6371609;27;20043;-75
2022/06/09 04:02:56;;;;;;;28.40;13.10;;;;;;;14.34;100.00;100544.03;6371968;27;20050;-76
2022/06/09 04:05:59;;;;;;;23.90;11.88;;;;;;;14.34;100.00;100544.88;6371692;27;20047;-75
2022/06/09 04:09:00;;;;;;;24.40;10.65;;;;;;;14.37;100.00;100543.81;6371800;27;20042;-75
2022/06/09 04:12:02;;;;;;;21.70;10.68;;;;;;;14.36;100.00;100542.97;6371614;27;20054;-75
2022/06/09 04:15:03;;;;;;;19.52;10.02;;;;;;;14.36;100.00;100552.72;6371683;27;20054;-75
2022/06/09 04:18:06;;;;;;;27.88;13.27;;;;;;;14.33;100.00;100545.00;6372052;27;20035;-75
2022/06/09 04:21:08;;;;;;;24.33;11.73;;;;;;;14.35;100.00;100553.66;6380694;27;20543;-76
2022/06/09 04:24:10;;;;;;;20.17;10.27;;;;;;;14.36;100.00;100560.66;6398889;27;20054;-76
2022/06/09 04:27:12;;;;;;;24.05;11.68;;;;;;;14.40;100.00;100564.75;6398989;27;20047;-76
2022/06/09 04:30:15;;;;;;;16.77;10.35;;;;;;;14.37;100.00;100570.25;6398772;27;20413;-76
2022/06/09 04:33:16;;;;;;;24.85;9.93;;;;;;;14.38;100.00;100569.31;6398860;27;20053;-76
2022/06/09 04:36:21;;;;;;;19.65;10.00;;;;;;;14.40;100.00;100570.91;6398217;27;20062;-76
2022/06/09 04:39:22;;;;;;;25.48;10.88;;;;;;;14.40;100.00;100570.91;6398508;27;20047;-75
2022/06/09 04:42:23;;;;;;;20.30;9.50;;;;;;;14.39;100.00;100571.81;6398217;27;20053;-75
2022/06/09 04:45:25;;;;;;;22.33;9.30;;;;;;;14.39;100.00;100576.28;6398181;27;20047;-75
2022/06/09 04:48:26;;;;;;;17.25;8.48;;;;;;;14.40;100.00;100570.06;6398323;27;20061;-75
2022/06/09 04:51:31;;;;;;;16.48;8.80;;;;;;;14.42;100.00;100589.28;6394521;27;20414;-76
2022/06/09 04:54:32;;;;;;;20.67;10.02;;;;;;;14.43;100.00;100590.97;6397895;27;20080;-75
2022/06/09 04:57:33;;;;;;;28.35;9.02;;;;;;;14.42;100.00;100591.91;6397892;27;20456;-75
2022/06/09 05:00:36;;;;;;;16.17;8.25;;;;;;;14.42;100.00;100595.41;6381054;27;20414;-75
2022/06/09 05:03:38;;;;;;;14.57;8.77;;;;;;;14.41;100.00;100591.09;6372705;27;20051;-75
2022/06/09 05:06:41;;;;;;;13.55;7.85;;;;;;;14.43;100.00;100597.09;6372149;27;20054;-76
2022/06/09 05:09:42;;;;;;;20.85;10.07;;;;;;;14.41;100.00;100604.31;6371903;27;20054;-75
2022/06/09 05:12:43;;;;;;;17.25;8.43;;;;;;;14.44;100.00;100605.88;6372461;27;20051;-75
2022/06/09 05:15:50;;;;;;;11.70;6.88;;;;;;;14.43;100.00;100607.66;6391528;27;20043;-76
2022/06/09 05:18:51;;;;;;;13.43;7.22;;;;;;;14.43;100.00;100615.59;6397865;27;20506;-76
2022/06/09 05:21:54;;;;;;;11.25;6.28;;;;;;;14.46;100.00;100618.03;6397422;27;20051;-75
2022/06/09 05:24:58;;;;;;;13.43;7.10;;;;;;;14.49;100.00;100629.38;6397588;27;20140;-77
2022/06/09 05:27:59;;;;;;;12.02;6.65;;;;;;;14.49;100.00;100632.00;6397743;27;20050;-76
2022/06/09 05:31:01;;;;;;;15.70;7.13;;;;;;;14.47;100.00;100634.75;6397525;27;20175;-77
2022/06/09 05:34:03;;;;;;;10.45;6.47;;;;;;;14.50;100.00;100645.16;6395637;27;20042;-76
2022/06/09 05:37:06;;;;;;;13.75;7.25;;;;;;;14.50;100.00;100644.31;6397836;27;20042;-77
2022/06/09 05:46:48;;;;;;;18.02;6.95;;;;;;;14.58;100.00;100657.78;6402796;27;20050;-76
2022/06/09 05:49:51;;;;;;;14.60;7.47;;;;;;;14.57;100.00;100662.25;6402420;27;20497;-76
2022/06/09 05:52:54;;;;;;;19.77;7.15;;;;;;;14.60;100.00;100663.84;6402930;27;20053;-77
2022/06/09 05:55:55;;;;;;;14.63;6.38;;;;;;;14.57;100.00;100674.63;6402629;27;20051;-77
2022/06/09 05:58:56;;;;;;;9.63;6.10;;;;;;;14.57;100.00;100680.75;6401518;27;20043;-77
2022/06/09 06:01:58;;;;;;;14.45;7.05;;;;;;;14.60;100.00;100688.47;6402134;27;20054;-76
2022/06/09 06:04:59;;;;;;;10.48;6.57;;;;;;;14.62;100.00;100691.84;6402289;27;20589;-77
2022/06/09 06:08:02;;;;;;;16.25;7.05;;;;;;;14.63;100.00;100690.91;6403006;27;20047;-77
2022/06/09 06:11:03;;;;;;;15.32;6.90;;;;;;;14.65;100.00;100696.09;6402272;27;20057;-77
2022/06/09 06:14:07;;;;;;;12.98;7.35;;;;;;;14.64;100.00;100705.00;6401994;27;20053;-77
2022/06/09 06:17:09;;;;;;;14.65;6.97;;;;;;;14.73;100.00;100712.28;6402647;27;20049;-76
2022/06/09 06:20:11;;;;;;;9.18;5.82;;;;;;;14.66;100.00;100716.28;6401614;27;20046;-76
2022/06/09 06:23:14;;;;;;;11.65;5.22;;;;;;;14.63;100.00;100721.81;6401981;27;20043;-76
2022/06/09 06:26:16;;;;;;;20.20;6.55;;;;;;;14.63;100.00;100727.09;6401435;27;20119;-78
2022/06/09 06:29:21;;;;;;;12.13;5.95;;;;;;;14.65;100.00;100733.97;6401069;27;20050;-76
2022/06/09 06:32:23;;;;;;;11.73;5.72;;;;;;;14.63;100.00;100741.19;6375675;27;20418;-77
2022/06/09 06:35:24;;;;;;;10.05;5.38;;;;;;;14.64;100.00;100753.44;6376086;27;20054;-76
2022/06/09 06:38:27;;;;;;;10.73;5.28;;;;;;;14.64;100.00;100760.53;6375881;27;20050;-77
2022/06/09 06:41:29;;;;;;;10.98;5.65;;;;;;;14.65;100.00;100747.19;6376047;27;20051;-77
2022/06/09 06:44:31;;;;;;;8.35;5.15;;;;;;;14.66;100.00;100754.16;6375526;27;20043;-77
2022/06/09 06:47:32;;;;;;;14.93;6.70;;;;;;;14.68;100.00;100754.06;6375956;27;20422;-77
2022/06/09 06:50:34;;;;;;;15.85;5.85;;;;;;;14.68;100.00;100767.31;6375954;27;20047;-77
2022/06/09 06:53:38;;;;;;;8.75;5.18;;;;;;;14.73;100.00;100759.03;6375679;27;20066;-76
2022/06/09 06:56:39;;;;;;;13.70;6.63;;;;;;;14.76;100.00;100761.44;6374418;27;20047;-77
2022/06/09 06:59:41;;;;;;;7.95;4.70;;;;;;;14.78;100.00;100757.75;6376230;27;20039;-77
2022/06/09 07:02:43;;;;;;;12.68;6.82;;;;;;;14.81;100.00;100759.34;6388274;27;20047;-77
2022/06/09 07:05:44;;;;;;;10.70;5.15;;;;;;;14.84;100.00;100764.41;6401074;27;20049;-78
2022/06/09 07:08:47;;;;;;;9.38;6.38;;;;;;;14.89;100.00;100765.75;6401382;27;20417;-77
2022/06/09 07:11:48;;;;;;;11.95;5.57;;;;;;;14.95;100.00;100770.63;6401113;27;20046;-77
2022/06/09 07:14:49;;;;;;;9.00;5.35;;;;;;;15.01;100.00;100779.09;6401226;27;20054;-77
2022/06/09 07:17:51;;;;;;;12.48;6.25;;;;;;;15.04;100.00;100779.72;6400969;27;20047;-77
2022/06/09 07:20:52;;;;;;;10.75;5.63;;;;;;;15.08;100.00;100782.97;6400370;27;20074;-77
2022/06/09 07:23:55;;;;;;;13.95;5.70;;;;;;;15.14;100.00;100779.91;6401107;27;20051;-76
2022/06/09 07:26:56;;;;;;;11.30;6.50;;;;;;;15.18;100.00;100782.22;6401413;27;20429;-76
2022/06/09 07:29:58;;;;;;;13.35;5.75;;;;;;;15.20;100.00;100788.25;6401335;27;20039;-76
2022/06/09 07:32:59;;;;;;;9.80;5.47;;;;;;;15.27;100.00;100790.47;6401178;27;20042;-76
2022/06/09 07:36:01;;;;;;;7.78;4.47;;;;;;;15.39;100.00;100797.50;6401351;27;20042;-76
2022/06/09 07:39:04;;;;;;;8.38;4.43;;;;;;;15.48;100.00;100802.97;6400266;27;20042;-76
2022/06/09 07:42:06;;;;;;;11.05;5.13;;;;;;;15.58;100.00;100808.47;6400770;27;20047;-75
2022/06/09 07:45:09;;;;;;;8.02;4.43;;;;;;;15.69;100.00;100805.06;6399682;27;20046;-76
2022/06/09 07:48:11;;;;;;;8.13;4.60;;;;;;;15.71;100.00;100814.59;6401461;27;20122;-76
2022/06/09 07:51:12;;;;;;;10.07;4.68;;;;;;;15.72;100.00;100824.22;6399852;27;20054;-76
2022/06/09 07:54:15;;;;;;;6.80;4.30;;;;;;;15.72;100.00;100824.22;6399949;27;20050;-77
2022/06/09 07:57:17;;;;;;;6.72;4.70;;;;;;;15.66;100.00;100832.59;6401624;27;20519;-76
2022/06/09 08:00:21;;;;;;;5.20;3.58;;;;;;;15.63;100.00;100839.91;6400361;27;20421;-76
2022/06/09 08:03:25;;;;;;;7.45;4.43;;;;;;;15.63;100.00;100834.63;6376346;27;20047;-76
2022/06/09 08:06:27;;;;;;;6.00;3.47;;;;;;;15.62;100.00;100840.84;6374817;27;20043;-76
2022/06/09 08:09:30;;;;;;;6.88;4.60;;;;;;;15.60;100.00;100845.44;6374614;27;20422;-76
2022/06/09 08:12:31;;;;;;;9.35;4.13;;;;;;;15.55;100.00;100858.16;6371235;27;20040;-75
2022/06/09 08:15:34;;;;;;;7.93;4.05;;;;;;;15.56;100.00;100865.16;6373947;27;20047;-75
2022/06/09 08:18:35;;;;;;;6.03;3.40;;;;;;;15.56;100.00;100866.00;6373190;27;20039;-75
2022/06/09 08:21:37;;;;;;;4.70;2.90;;;;;;;15.55;100.00;100872.25;6373201;27;20418;-75
2022/06/09 08:24:40;;;;;;;9.65;3.90;;;;;;;15.58;100.00;100879.13;6373188;27;20140;-76
2022/06/09 08:27:41;;;;;;;7.53;3.25;;;;;;;15.60;100.00;100878.06;6365353;27;20043;-75
2022/06/09 08:30:43;;;;;;;6.13;3.90;;;;;;;15.66;100.00;100887.41;6363155;27;20051;-75
2022/06/09 08:33:44;;;;;;;8.43;4.43;;;;;;;15.72;100.00;100887.81;6398307;27;20051;-75
2022/06/09 08:36:45;;;;;;;6.22;4.15;;;;;;;15.72;100.00;100892.28;6399034;27;20051;-74
2022/06/09 08:39:48;;;;;;;7.43;3.95;;;;;;;15.69;100.00;100900.44;6398462;27;20490;-74
2022/06/09 08:43:08;;;;;;;7.95;3.83;;;;;;;15.69;100.00;100903.09;6398343;27;20051;-75
2022/06/09 08:46:39;;;;;;;6.18;3.50;;;;;;;15.71;100.00;100906.44;6398145;27;20050;-74
2022/06/09 08:49:52;;;;;;;7.03;3.78;;;;;;;15.76;100.00;100906.13;6398211;27;20057;-75
2022/06/09 08:52:57;;;;;;;8.27;3.65;;;;;;;15.76;100.00;100914.06;6398594;27;20050;-75
2022/06/09 08:56:06;;;;;;;7.35;4.40;;;;;;;15.81;100.00;100919.91;6397968;27;20418;-75
2022/06/09 08:59:13;;;;;;;;;;;;;;;15.90;100.00;100929.84;6398701;27;20180;-74
2022/06/09 09:02:26;;;;;;;7.10;4.35;;;;;;;16.03;100.00;100922.66;6396167;27;19919;-75
2022/06/09 09:05:32;;;;;;;7.78;4.57;;;;;;;16.13;100.00;100922.84;6397963;27;20051;-75
2022/06/09 09:08:34;;;;;;;6.53;4.28;;;;;;;16.21;100.00;100925.75;6398025;27;20039;-76
2022/06/09 09:11:50;;;;;;;8.95;4.93;;;;;;;16.24;100.00;100928.19;6397855;27;20054;-75
2022/06/09 09:15:04;;;;;;;7.30;3.75;;;;;;;16.31;100.00;100936.56;6397649;27;20054;-74
2022/06/09 09:18:21;;;;;;;10.05;3.88;;;;;;;16.51;100.00;100937.72;6398002;27;20043;-74
2022/06/09 09:21:35;;;;;;;6.05;4.05;;;;;;;16.58;100.00;100934.50;6396883;27;20058;-74
2022/06/09 09:24:45;;;;;;;7.45;3.70;;;;;;;16.74;100.00;100934.19;6397918;27;20514;-73
2022/06/09 09:27:55;;;;;;;6.72;3.75;;;;;;;16.81;100.00;100937.25;6397524;27;20055;-74
2022/06/09 09:31:03;;;;;;;6.72;3.45;;;;;;;16.68;100.00;100947.91;6395957;27;20046;-74
2022/06/09 09:34:05;;;;;;;5.65;3.50;;;;;;;16.58;100.00;100949.53;6397297;27;20051;-73
2022/06/09 09:37:20;;;;;;;9.93;4.45;;;;;;;16.55;100.00;100955.09;6397816;27;20047;-74
2022/06/09 09:40:28;;;;;;;6.00;4.00;;;;;;;16.61;100.00;100950.16;6397176;27;20051;-74
2022/06/09 09:43:37;;;;;;;8.35;4.13;;;;;;;16.80;100.00;100954.94;6397557;27;20420;-73
2022/06/09 09:46:41;;;;;;;7.32;4.50;;;;;;;16.77;100.00;100959.66;6397147;27;20051;-75
2022/06/09 09:49:52;;;;;;;8.18;3.97;;;;;;;16.85;100.00;100958.13;6397204;27;20050;-73
2022/06/09 09:53:00;;;;;;;8.35;3.95;;;;;;;16.95;100.00;100955.59;6397393;27;20128;-73
2022/06/09 09:56:05;;;;;;;8.07;4.50;;;;;;;16.85;100.00;100966.09;6397063;27;20053;-75
2022/06/09 09:59:24;;;;;;;9.27;3.72;;;;;;;16.86;100.00;100974.91;6397136;27;20718;-73
2022/06/09 10:09:19;;;;;;;6.03;3.50;;;;;;;16.91;100.00;100978.88;6398151;27;20043;-75
2022/06/09 10:12:27;;;;;;;13.50;4.25;;;;;;;16.92;100.00;100980.56;6397011;27;20057;-73
2022/06/09 10:15:30;;;;;;;6.80;3.80;;;;;;;16.94;100.00;100981.31;6396996;27;20050;-73
2022/06/09 10:18:31;;;;;;;5.60;3.53;;;;;;;17.10;100.00;100999.56;6397186;27;20047;-74
2022/06/09 10:21:49;;;;;;;12.45;4.65;;;;;;;17.19;100.00;100996.19;6397003;27;20057;-74
2022/06/09 10:24:55;;;;;;;6.22;4.03;;;;;;;17.22;100.00;101011.06;6390840;27;20164;-73
2022/06/09 10:28:06;;;;;;;5.95;4.25;;;;;;;17.23;100.00;101010.09;6369920;28;20039;-74
2022/06/09 10:31:15;;;;;;;5.78;4.10;;;;;;;17.27;100.00;101008.06;6372938;27;20188;-74
2022/06/09 10:34:34;;;;;;;4.72;3.75;;;;;;;17.23;100.00;101002.13;6376697;27;20054;-74
2022/06/09 10:37:42;;;;;;;5.53;3.35;;;;;;;17.34;100.00;101018.06;6374285;27;20043;-74
2022/06/09 10:40:47;;;;;;;7.15;4.38;;;;;;;17.37;100.00;101011.69;6375362;27;20050;-74
2022/06/09 10:43:54;;;;;;;5.55;3.67;;;;;;;17.38;100.00;101024.00;6375615;27;20039;-74
2022/06/09 10:57:23;;;;;;;3.75;2.97;;;;;;;17.97;100.00;101027.28;6375448;27;20047;-75
2022/06/09 11:00:28;;;;;;;5.25;3.35;;;;;;;17.75;100.00;101033.47;6375258;27;20043;-75
2022/06/09 11:03:36;;;;;;;9.18;3.65;;;;;;;18.00;100.00;101031.53;6376332;27;20070;-73
2022/06/09 11:06:54;;;;;;;5.28;3.03;;;;;;;18.21;100.00;101042.25;6375322;27;20062;-75
2022/06/09 11:10:05;;;;;;;5.55;3.22;;;;;;;17.98;100.00;101038.75;6374607;27;20429;-75
2022/06/09 11:13:29;;;;;;;6.97;3.10;;;;;;;17.75;100.00;101040.59;6375154;27;20043;-74
2022/06/09 11:16:41;;;;;;;7.15;3.75;;;;;;;17.46;100.00;101051.66;6374869;27;20051;-75
2022/06/09 11:19:55;;;;;;;5.00;2.90;;;;;;;17.30;100.00;101044.97;6374423;27;20486;-74
2022/06/09 11:23:06;;;;;;;6.72;3.53;;;;;;;17.31;100.00;101050.19;6375138;27;20054;-75
2022/06/09 11:26:16;;;;;;;10.30;3.97;;;;;;;17.35;100.00;101048.13;6374430;27;20059;-75
2022/06/09 11:29:40;;;;;;;6.68;4.13;;;;;;;17.44;100.00;101050.06;6374929;27;20058;-74
2022/06/09 11:32:47;;;;;;;6.80;4.22;;;;;;;17.92;100.00;101061.38;6373295;27;20059;-74
2022/06/09 11:35:58;;;;;;;7.88;3.70;;;;;;;18.68;100.00;101057.00;6373660;27;20542;-75
2022/06/09 11:39:23;;;;;;;5.53;3.40;;;;;;;19.44;100.00;101051.53;6372742;27;20623;-75
2022/06/09 11:42:35;;;;;;;5.50;3.13;;;;;;;19.71;93.70;101053.69;6370027;27;20047;-75
2022/06/09 11:45:43;;;;;;;6.65;2.63;;;;;;;19.15;100.00;101049.56;6374067;27;20057;-74
2022/06/09 11:48:47;;;;;;;3.90;3.10;;;;;;;18.68;100.00;101056.16;6374152;27;20490;-75
2022/06/09 11:51:51;;;;;;;8.40;3.38;;;;;;;18.42;100.00;101056.47;6374074;27;20054;-74
2022/06/09 11:55:02;;;;;;;5.30;2.72;;;;;;;18.45;100.00;101056.22;6373662;27;20047;-75
2022/06/09 11:58:04;;;;;;;4.07;2.72;;;;;;;19.07;100.00;101059.16;6373871;27;20054;-75
2022/06/09 12:01:11;;;;;;;2.95;2.08;;;;;;;18.84;100.00;101056.59;6373522;27;20039;-75
2022/06/09 12:04:24;;;;;;;5.05;3.10;;;;;;;18.66;100.00;101056.28;6377323;27;20046;-75
2022/06/09 12:07:37;;;;;;;2.45;2.25;;;;;;;19.09;100.00;101055.41;6399238;27;20047;-75
2022/06/09 12:10:59;;;;;;;2.75;2.03;;;;;;;20.15;89.49;101059.63;6398824;27;20405;-76
2022/06/09 12:14:10;;;;;;;4.00;1.67;;;;;;;20.76;85.75;101059.47;6398726;27;20057;-74
2022/06/09 12:17:22;;;;;;;4.43;1.65;;;;;;;21.41;82.23;101054.38;6399563;27;20529;-75
2022/06/09 12:20:33;;;;;;;3.25;1.95;;;;;;;21.73;74.69;101051.31;6398527;27;20050;-76
2022/06/09 12:23:39;;;;;;;4.72;1.80;;;;;;;21.92;76.45;101045.88;6399067;27;20117;-76
2022/06/09 12:26:55;;;;;;;2.55;1.40;;;;;;;21.95;71.63;101058.97;6398620;27;20047;-78
2022/06/09 12:30:24;;;;;;;4.80;1.40;;;;;;;21.45;75.04;101058.44;6398602;27;20043;-76
2022/06/09 12:33:30;;;;;;;5.05;1.38;;;;;;;21.84;72.51;101045.75;6399251;27;20050;-75
2022/06/09 12:36:39;;;;;;;4.43;1.73;;;;;;;21.41;72.31;101059.72;6378380;27;20043;-75
2022/06/09 12:39:47;;;;;;;4.93;2.13;;;;;;;20.71;76.21;101069.72;6373022;27;20043;-75
2022/06/09 12:42:51;;;;;;;1.10;1.00;;;;;;;20.16;72.64;101069.31;6375335;27;20055;-76
2022/06/09 12:46:00;;;;;;;5.90;1.25;;;;;;;20.70;68.55;101074.22;6398196;27;20067;-76
2022/06/09 12:49:15;;;;;;;1.80;1.13;;;;;;;21.53;66.05;101075.47;6398660;27;20039;-75
2022/06/09 12:52:23;;;;;;;1.80;1.08;;;;;;;21.89;66.24;101077.44;6396746;27;20050;-75
2022/06/09 12:55:29;;;;;;;1.25;1.00;;;;;;;22.38;64.45;101078.06;6396898;27;20417;-75
2022/06/09 12:58:35;;;;;;;1.52;0.88;;;;;;;22.65;66.28;101079.84;6398460;27;20054;-75
2022/06/09 13:01:37;;;;;;;4.85;0.98;;;;;;;22.45;61.53;101084.53;6398169;27;20055;-75
2022/06/09 13:04:49;;;;;;;1.13;0.70;;;;;;;22.54;58.16;101088.97;6397758;27;20417;-76
2022/06/09 13:07:53;;;;;;;0.63;0.63;;;;;;;22.55;58.15;101087.97;6398093;27;20055;-76
2022/06/09 13:11:01;;;;;;;1.17;1.00;;;;;;;22.52;58.84;101088.25;6396084;27;20486;-75
2022/06/09 13:14:03;;;;;;;1.13;0.80;;;;;;;22.75;54.94;101083.31;6397677;27;20500;-75
2022/06/09 13:17:09;;;;;;;1.27;0.80;;;;;;;22.94;51.75;101090.41;6398403;27;20073;-74
2022/06/09 13:20:16;;;;;;;0.52;0.52;;;;;;;23.37;54.31;101097.63;6397283;27;20049;-75
2022/06/09 13:23:17;;;;;;;2.05;0.85;;;;;;;23.45;52.06;101084.25;6398125;27;20421;-77
2022/06/09 13:26:23;;;;;;;1.05;0.88;;;;;;;23.28;51.86;101087.81;6397496;27;20057;-76
2022/06/09 13:29:27;;;;;;;3.05;1.38;;;;;;;23.51;53.41;101085.47;6397594;27;20043;-76
2022/06/09 13:32:38;;;;;;;0.50;0.50;;;;;;;23.54;55.49;101093.22;6397333;27;20058;-77
2022/06/09 13:35:41;;;;;;;0.80;0.60;;;;;;;23.85;53.36;101082.88;6391813;27;20061;-77
2022/06/09 13:38:43;;;;;;;1.10;0.77;;;;;;;23.58;52.30;101083.84;6372027;28;20047;-78
2022/06/09 13:41:46;;;;;;;1.08;0.65;;;;;;;23.34;53.16;101105.13;6371212;28;20073;-77
2022/06/09 13:45:03;;;;;;;0.60;0.60;;;;;;;22.85;54.41;101094.81;6371685;27;20043;-77
2022/06/09 13:48:14;;;;;;;2.90;0.90;;;;;;;22.81;53.52;101101.47;6371754;28;20103;-77
2022/06/09 13:51:26;;;;;;;2.55;1.00;;;;;;;22.72;54.78;101097.03;6371628;28;20047;-76
2022/06/09 13:54:30;;;;;;;1.17;0.80;;;;;;;22.98;54.89;101083.72;6371349;28;20051;-76
2022/06/09 13:57:36;;;;;;;0.90;0.60;;;;;;;23.52;54.03;101106.75;6371663;28;20138;-77
2022/06/09 14:00:41;;;;;;;4.78;0.80;;;;;;;23.53;51.05;101113.84;6371337;28;20050;-76
2022/06/09 14:03:46;;;;;;;1.15;0.60;;;;;;;23.77;50.54;101115.84;6371689;28;20050;-78
2022/06/09 14:06:47;;;;;;;2.53;0.70;;;;;;;24.13;52.65;101107.66;6386964;27;20043;-76
2022/06/09 14:09:49;;;;;;;0.50;0.50;;;;;;;24.25;47.40;101121.63;6401867;27;20042;-77
2022/06/09 14:12:52;;;;;;;0.40;0.40;;;;;;;24.22;48.19;101116.59;6402186;27;20137;-76
2022/06/09 14:15:54;;;;;;;1.35;0.55;;;;;;;23.96;47.52;101143.47;6401884;27;20054;-76
2022/06/09 14:18:56;;;;;;;0.75;0.60;;;;;;;23.10;47.67;101136.09;6402328;27;20046;-77
2022/06/09 14:21:57;;;;;;;0.70;0.60;;;;;;;22.70;51.50;101136.50;6401782;27;20058;-79
2022/06/09 14:24:58;;;;;;;2.63;0.93;;;;;;;22.10;50.70;101147.66;6401590;27;20053;-76
2022/06/09 14:28:01;;;;;;;1.77;0.73;;;;;;;21.63;52.57;101152.16;6401673;27;20417;-76
2022/06/09 14:31:02;;;;;;;0.60;0.60;;;;;;;21.47;53.71;101163.41;6401561;27;20050;-76